Time;durP1;ratioP1;P1;durP2;ratioP2;P2;SDS_P1;SDS_P2;PMS_P1;PMS_P2;Temp;Humidity;BMP_temperature;BMP_pressure;BME280_temperature;BME280_humidity;BME280_pressure;Samples;Min_cycle;Max_cycle;Signal;HPM_P1;HPM_P2
2022/04/08 00:00:27;;;;;;;8.23;1.75;;;6.00;99.90;;;;;;4936124;29;20118;-62
2022/04/08 00:02:53;;;;;;;9.85;2.28;;;6.00;99.90;;;;;;4927581;29;20071;-62
2022/04/08 00:05:18;;;;;;;6.78;1.80;;;5.90;99.90;;;;;;4925815;29;20067;-62
2022/04/08 00:07:44;;;;;;;8.90;1.70;;;5.90;99.90;;;;;;4935046;29;20066;-62
2022/04/08 00:10:10;;;;;;;7.22;1.70;;;5.90;99.90;;;;;;4936522;29;20040;-62
2022/04/08 00:12:35;;;;;;;10.07;2.10;;;5.80;99.90;;;;;;4924296;29;20060;-62
2022/04/08 00:15:01;;;;;;;10.18;1.77;;;5.90;99.90;;;;;;4927811;29;20095;-62
2022/04/08 00:17:26;;;;;;;8.00;2.03;;;5.90;99.90;;;;;;4936073;29;20050;-62
2022/04/08 00:19:52;;;;;;;7.82;2.35;;;5.90;99.90;;;;;;4916918;29;20036;-62
2022/04/08 00:22:18;;;;;;;6.57;1.70;;;5.90;99.90;;;;;;4930981;29;20039;-62
2022/04/08 00:24:44;;;;;;;7.68;1.70;;;5.90;99.90;;;;;;4935633;29;20071;-62
2022/04/08 00:27:10;;;;;;;7.53;1.60;;;5.90;99.90;;;;;;4936040;29;20075;-62
2022/04/08 00:29:35;;;;;;;7.28;2.05;;;5.90;99.90;;;;;;4927650;29;20050;-62
2022/04/08 00:32:01;;;;;;;6.30;1.70;;;5.90;99.90;;;;;;4933193;29;20047;-62
2022/04/08 00:34:27;;;;;;;7.47;2.72;;;5.90;99.90;;;;;;4930832;29;20044;-62
2022/04/08 00:36:54;;;;;;;7.13;1.92;;;5.90;99.90;;;;;;4927382;29;20057;-62
2022/04/08 00:39:21;;;;;;;6.95;1.67;;;6.00;99.90;;;;;;4933835;29;20112;-62
2022/04/08 00:41:47;;;;;;;8.00;1.95;;;5.90;99.90;;;;;;4935840;29;20052;-62
2022/04/08 00:44:12;;;;;;;8.38;1.77;;;6.00;99.90;;;;;;4929873;29;20048;-62
2022/04/08 00:46:38;;;;;;;6.55;1.60;;;6.00;99.90;;;;;;4931760;29;20047;-62
2022/04/08 00:49:04;;;;;;;5.88;1.75;;;5.90;99.90;;;;;;4938127;29;20079;-62
2022/04/08 00:51:33;;;;;;;9.52;1.83;;;5.90;99.90;;;;;;4932216;29;20056;-62
2022/04/08 00:54:00;;;;;;;4.25;1.40;;;5.90;99.90;;;;;;4919968;29;20066;-62
2022/04/08 00:56:28;;;;;;;3.20;1.20;;;5.80;99.90;;;;;;4930896;29;20044;-61
2022/04/08 00:58:56;;;;;;;6.03;1.60;;;5.70;99.90;;;;;;4935359;29;20040;-61
2022/04/08 01:01:23;;;;;;;3.20;1.23;;;5.40;99.90;;;;;;4923476;29;20078;-61
2022/04/08 01:03:52;;;;;;;3.08;1.30;;;5.30;99.90;;;;;;4925945;29;20131;-62
2022/04/08 01:06:18;;;;;;;4.93;1.42;;;5.30;99.90;;;;;;4923167;29;20044;-62
2022/04/08 01:09:32;;;;;;;1.95;1.00;;;5.20;99.90;;;;;;4937679;29;20054;-62
2022/04/08 01:16:05;;;;;;;4.68;1.63;;;5.10;99.90;;;;;;4879100;29;20663;-62
2022/04/08 01:18:31;;;;;;;5.55;1.60;;;5.10;99.90;;;;;;4927990;29;20065;-62
2022/04/08 01:20:56;;;;;;;4.30;1.65;;;5.10;99.90;;;;;;4933816;29;20066;-61
2022/04/08 01:23:23;;;;;;;3.45;1.30;;;5.10;99.90;;;;;;4931940;29;20060;-62
2022/04/08 01:25:49;;;;;;;2.47;1.38;;;5.10;99.90;;;;;;4930180;29;20040;-61
2022/04/08 01:28:14;;;;;;;6.85;1.80;;;5.10;99.90;;;;;;4923091;29;20032;-62
2022/04/08 01:30:40;;;;;;;4.75;1.90;;;5.10;99.90;;;;;;4933927;29;20139;-62
2022/04/08 01:33:06;;;;;;;9.23;1.60;;;5.00;99.90;;;;;;4934519;29;20040;-62
2022/04/08 01:35:31;;;;;;;3.03;1.30;;;5.00;99.90;;;;;;4945610;28;20070;-61
2022/04/08 01:37:57;;;;;;;6.15;1.83;;;4.80;99.90;;;;;;4925424;29;20055;-62
2022/04/08 01:40:22;;;;;;;3.70;1.35;;;4.70;99.90;;;;;;4934365;29;20080;-62
2022/04/08 01:42:48;;;;;;;5.68;1.45;;;4.60;99.90;;;;;;4927016;29;20075;-61
2022/04/08 01:45:14;;;;;;;4.15;1.42;;;4.40;99.90;;;;;;4923190;29;20039;-61
2022/04/08 01:47:39;;;;;;;4.32;1.30;;;4.40;99.90;;;;;;4918422;29;20036;-62
2022/04/08 01:50:07;;;;;;;4.97;1.08;;;4.30;99.90;;;;;;4934822;29;20044;-62
2022/04/08 01:52:32;;;;;;;6.57;1.38;;;4.20;99.90;;;;;;4925139;29;20071;-61
2022/04/08 01:54:58;;;;;;;5.53;1.50;;;4.20;99.90;;;;;;4932822;29;20076;-61
2022/04/08 01:57:24;;;;;;;8.95;1.90;;;4.20;99.90;;;;;;4934188;29;20658;-61
2022/04/08 01:59:52;;;;;;;3.63;1.40;;;4.20;99.90;;;;;;4921374;29;20040;-61
2022/04/08 02:02:19;;;;;;;6.43;1.58;;;4.20;99.90;;;;;;4933866;29;20047;-61
2022/04/08 02:04:45;;;;;;;9.60;1.65;;;4.10;99.90;;;;;;4933878;29;20036;-62
2022/04/08 02:07:10;;;;;;;6.50;1.70;;;4.10;99.90;;;;;;4930748;29;20075;-61
2022/04/08 02:09:36;;;;;;;7.78;1.95;;;4.10;99.90;;;;;;4918194;29;20032;-61
2022/04/08 02:12:02;;;;;;;10.75;2.22;;;4.00;99.90;;;;;;4931129;29;20095;-61
2022/04/08 02:14:27;;;;;;;7.82;1.50;;;4.00;99.90;;;;;;4925199;29;20077;-61
2022/04/08 02:16:53;;;;;;;5.80;1.80;;;3.90;99.90;;;;;;4916756;29;20048;-61
2022/04/08 02:19:18;;;;;;;5.88;1.70;;;3.80;99.90;;;;;;4932387;29;20035;-61
2022/04/08 02:21:44;;;;;;;7.88;1.60;;;3.70;99.90;;;;;;4928803;29;20617;-61
2022/04/08 02:24:13;;;;;;;5.28;1.52;;;3.70;99.90;;;;;;4916222;29;20185;-62
2022/04/08 02:26:39;;;;;;;8.80;1.55;;;3.50;99.90;;;;;;4916758;29;20611;-62
2022/04/08 02:29:04;;;;;;;10.15;1.83;;;3.50;99.90;;;;;;4929977;29;20058;-62
2022/04/08 02:31:30;;;;;;;6.75;2.05;;;3.40;99.90;;;;;;4933862;29;20053;-62
2022/04/08 02:33:55;;;;;;;8.10;2.05;;;3.30;99.90;;;;;;4924650;29;20055;-62
2022/04/08 02:36:21;;;;;;;12.75;1.92;;;3.30;99.90;;;;;;4928599;29;20040;-62
2022/04/08 02:38:46;;;;;;;11.00;2.28;;;3.30;99.90;;;;;;4932018;29;20036;-62
2022/04/08 02:41:15;;;;;;;9.32;2.00;;;3.40;99.90;;;;;;4932183;29;20074;-61
2022/04/08 02:43:41;;;;;;;8.43;1.65;;;3.40;99.90;;;;;;4927735;29;20034;-62
2022/04/08 02:46:06;;;;;;;10.88;2.20;;;3.40;99.90;;;;;;4933643;29;20039;-62
2022/04/08 02:48:32;;;;;;;12.07;2.33;;;3.50;99.90;;;;;;4932907;29;20075;-62
2022/04/08 02:50:57;;;;;;;11.35;2.28;;;3.70;99.90;;;;;;4927527;29;20043;-62
2022/04/08 02:53:23;;;;;;;12.48;2.40;;;3.80;99.90;;;;;;4932926;29;20062;-62
2022/04/08 02:55:48;;;;;;;13.98;2.28;;;3.90;99.90;;;;;;4916283;29;20040;-62
2022/04/08 02:58:14;;;;;;;7.95;2.50;;;4.00;99.90;;;;;;4922375;29;20032;-62
2022/04/08 03:00:40;;;;;;;6.82;2.40;;;4.20;99.90;;;;;;4927453;29;20567;-62
2022/04/08 03:03:06;;;;;;;10.00;2.08;;;4.20;99.90;;;;;;4933132;29;20047;-61
2022/04/08 03:05:31;;;;;;;4.88;1.85;;;4.10;99.90;;;;;;4929900;29;20050;-62
2022/04/08 03:07:57;;;;;;;9.15;1.88;;;4.10;99.90;;;;;;4929081;29;20520;-61
2022/04/08 03:10:22;;;;;;;8.43;2.00;;;4.00;99.90;;;;;;4933128;29;20550;-61
2022/04/08 03:12:48;;;;;;;8.07;1.98;;;3.90;99.90;;;;;;4929851;29;20499;-62
2022/04/08 03:15:13;;;;;;;7.72;2.20;;;3.80;99.90;;;;;;4923146;29;20058;-61
2022/04/08 03:17:39;;;;;;;8.02;1.80;;;3.80;99.90;;;;;;4934943;29;20615;-62
2022/04/08 03:20:05;;;;;;;5.10;1.77;;;3.70;99.90;;;;;;4936710;29;20044;-61
2022/04/08 03:22:31;;;;;;;6.85;1.70;;;3.60;99.90;;;;;;4916099;29;20083;-62
2022/04/08 03:24:57;;;;;;;9.23;2.10;;;3.60;99.90;;;;;;4931745;29;20040;-61
2022/04/08 03:27:22;;;;;;;5.72;1.83;;;3.60;99.90;;;;;;4937821;29;20040;-61
2022/04/08 03:29:48;;;;;;;7.95;2.00;;;3.60;99.90;;;;;;4936024;29;20052;-62
2022/04/08 03:32:14;;;;;;;7.28;2.33;;;3.60;99.90;;;;;;4921765;29;20040;-62
2022/04/08 03:34:39;;;;;;;5.38;1.80;;;3.60;99.90;;;;;;4921932;29;20550;-62
2022/04/08 03:37:05;;;;;;;11.27;2.30;;;3.60;99.90;;;;;;4933763;29;20043;-62
2022/04/08 03:39:32;;;;;;;5.10;1.83;;;3.60;99.90;;;;;;4920911;29;20036;-62
2022/04/08 03:41:57;;;;;;;16.25;2.05;;;3.60;99.90;;;;;;4923965;29;20414;-62
2022/04/08 03:44:23;;;;;;;7.40;2.42;;;3.70;99.90;;;;;;4984227;23;20057;-61
2022/04/08 03:46:49;;;;;;;8.43;2.53;;;3.70;99.90;;;;;;4960216;28;20498;-62
2022/04/08 03:49:15;;;;;;;10.00;2.15;;;3.70;99.90;;;;;;4945604;29;20040;-61
2022/04/08 03:51:44;;;;;;;9.52;1.83;;;3.70;99.90;;;;;;4951696;28;20040;-61
2022/04/08 03:54:12;;;;;;;6.78;2.03;;;3.70;99.90;;;;;;4947288;28;20043;-61
2022/04/08 03:56:38;;;;;;;9.23;2.47;;;3.70;99.90;;;;;;4959332;23;20076;-63
2022/04/08 03:59:04;;;;;;;8.45;1.77;;;3.70;99.90;;;;;;4973315;28;20043;-62
2022/04/08 04:01:30;;;;;;;9.73;2.63;;;3.70;99.90;;;;;;4974969;28;20035;-63
2022/04/08 04:03:56;;;;;;;8.30;2.22;;;3.60;99.90;;;;;;4969181;28;20039;-63
2022/04/08 04:06:21;;;;;;;13.65;2.58;;;3.60;99.90;;;;;;4957418;28;20046;-63
2022/04/08 04:08:47;;;;;;;8.43;2.10;;;3.50;99.90;;;;;;4969734;28;20076;-62
2022/04/08 04:11:16;;;;;;;10.45;2.38;;;3.50;99.90;;;;;;4969573;28;20636;-62
2022/04/08 04:13:45;;;;;;;13.60;2.35;;;3.50;99.90;;;;;;4962589;28;20040;-63
2022/04/08 04:16:11;;;;;;;16.33;2.85;;;3.60;99.90;;;;;;4959113;28;20039;-63
2022/04/08 04:18:37;;;;;;;14.38;2.47;;;3.60;99.90;;;;;;4971446;28;20085;-62
2022/04/08 04:21:03;;;;;;;10.05;2.63;;;3.60;99.90;;;;;;4964789;28;20077;-63
2022/04/08 04:23:29;;;;;;;9.40;2.80;;;3.60;99.90;;;;;;4973722;28;20042;-62
2022/04/08 04:25:54;;;;;;;10.68;3.13;;;3.60;99.90;;;;;;4963271;28;20039;-62
2022/04/08 04:28:20;;;;;;;9.02;2.65;;;3.70;99.90;;;;;;4956831;28;20082;-63
2022/04/08 04:30:46;;;;;;;13.55;2.75;;;3.70;99.90;;;;;;4968304;28;20046;-63
2022/04/08 04:33:11;;;;;;;14.40;3.17;;;3.80;99.90;;;;;;4962569;28;20115;-62
2022/04/08 04:35:38;;;;;;;12.38;2.53;;;3.80;99.90;;;;;;4954926;28;20039;-63
2022/04/08 04:38:04;;;;;;;12.85;2.72;;;3.90;99.90;;;;;;4953547;28;20043;-63
2022/04/08 04:40:29;;;;;;;9.40;2.80;;;3.90;99.90;;;;;;4966256;28;20070;-63
2022/04/08 04:42:58;;;;;;;10.93;3.25;;;3.90;99.90;;;;;;4963921;28;20046;-63
2022/04/08 04:45:24;;;;;;;14.00;2.97;;;4.00;99.90;;;;;;4960371;28;20035;-63
2022/04/08 04:47:50;;;;;;;8.27;2.58;;;4.00;99.90;;;;;;4963974;28;20038;-62
2022/04/08 04:50:15;;;;;;;10.70;2.60;;;4.00;99.90;;;;;;4965823;28;20045;-62
2022/04/08 04:52:41;;;;;;;12.95;3.72;;;4.00;99.90;;;;;;4956018;28;20050;-64
2022/04/08 04:55:07;;;;;;;11.48;2.75;;;4.10;99.90;;;;;;4956560;28;20055;-63
2022/04/08 04:57:33;;;;;;;8.98;2.50;;;4.10;99.90;;;;;;4961168;28;20035;-63
2022/04/08 04:59:59;;;;;;;13.95;2.70;;;4.10;99.90;;;;;;4962117;28;20039;-63
2022/04/08 05:02:24;;;;;;;12.82;3.55;;;4.10;99.90;;;;;;4938506;28;20077;-64
2022/04/08 05:04:50;;;;;;;14.98;3.13;;;4.00;99.90;;;;;;4966677;28;20536;-63
2022/04/08 05:07:16;;;;;;;13.30;3.58;;;4.00;99.90;;;;;;4949719;28;20409;-63
2022/04/08 05:09:42;;;;;;;9.85;2.50;;;3.90;99.90;;;;;;4951298;29;20065;-63
2022/04/08 05:12:08;;;;;;;12.95;2.63;;;3.80;99.90;;;;;;4953979;28;20456;-63
2022/04/08 05:14:34;;;;;;;13.10;3.38;;;3.70;99.90;;;;;;4962000;28;20517;-62
2022/04/08 05:17:00;;;;;;;10.20;3.83;;;3.80;99.90;;;;;;4953760;28;20070;-63
2022/04/08 05:19:26;;;;;;;12.45;3.13;;;3.80;99.90;;;;;;4938096;28;20066;-63
2022/04/08 05:21:52;;;;;;;13.30;3.10;;;3.90;99.90;;;;;;4970738;28;20039;-63
2022/04/08 05:24:19;;;;;;;13.70;2.83;;;4.00;99.90;;;;;;4965223;28;20039;-63
2022/04/08 05:26:44;;;;;;;7.32;2.72;;;4.10;99.90;;;;;;4958483;28;20035;-62
2022/04/08 05:29:10;;;;;;;11.23;3.63;;;4.10;99.90;;;;;;4969532;28;20049;-63
2022/04/08 05:31:36;;;;;;;12.02;3.10;;;4.20;99.90;;;;;;4961017;28;20405;-63
2022/04/08 05:34:02;;;;;;;8.18;3.22;;;4.20;99.90;;;;;;4961192;28;20042;-63
2022/04/08 05:36:27;;;;;;;13.85;3.65;;;4.30;99.90;;;;;;4957065;28;20063;-63
2022/04/08 05:38:53;;;;;;;9.90;3.17;;;4.30;99.90;;;;;;4960600;28;20190;-62
2022/04/08 05:41:18;;;;;;;11.50;3.30;;;4.50;99.90;;;;;;4930416;28;20035;-61
2022/04/08 05:43:45;;;;;;;6.95;3.22;;;4.50;99.90;;;;;;4960472;28;20146;-61
2022/04/08 05:46:11;;;;;;;12.13;3.08;;;4.50;99.90;;;;;;4963889;28;20038;-61
2022/04/08 05:48:37;;;;;;;5.32;2.55;;;4.40;99.90;;;;;;4961865;28;20073;-61
2022/04/08 05:51:02;;;;;;;7.20;2.10;;;4.30;99.90;;;;;;4950398;28;20471;-60
2022/04/08 05:53:28;;;;;;;11.55;2.50;;;4.10;99.90;;;;;;4955805;28;20064;-60
2022/04/08 05:55:58;;;;;;;9.10;2.78;;;4.00;99.90;;;;;;4963155;28;20050;-60
2022/04/08 05:58:24;;;;;;;8.00;2.33;;;3.90;99.90;;;;;;4969183;28;20038;-61
2022/04/08 06:00:50;;;;;;;3.85;2.35;;;3.80;99.90;;;;;;4965044;28;20038;-61
2022/04/08 06:03:15;;;;;;;4.47;2.40;;;3.80;99.90;;;;;;4962039;28;20042;-61
2022/04/08 06:05:41;;;;;;;4.60;2.50;;;3.80;99.90;;;;;;4959564;28;20752;-61
2022/04/08 06:08:07;;;;;;;5.28;2.30;;;3.80;99.90;;;;;;4950072;29;20039;-61
2022/04/08 06:10:33;;;;;;;5.75;2.50;;;3.90;99.90;;;;;;4950171;28;20047;-62
2022/04/08 06:12:58;;;;;;;8.57;2.47;;;4.00;99.90;;;;;;4957516;28;20039;-61
2022/04/08 06:15:27;;;;;;;5.50;2.17;;;4.00;99.90;;;;;;4950190;28;20035;-61
2022/04/08 06:17:55;;;;;;;5.45;2.42;;;3.90;99.90;;;;;;4960967;28;20611;-62
2022/04/08 06:20:21;;;;;;;4.53;2.55;;;3.80;99.90;;;;;;4958096;28;20043;-60
2022/04/08 06:22:48;;;;;;;4.38;2.08;;;3.70;99.90;;;;;;4963962;28;20042;-60
2022/04/08 06:25:16;;;;;;;5.57;2.45;;;3.50;99.90;;;;;;4931530;29;20105;-60
2022/04/08 06:27:44;;;;;;;5.40;2.90;;;3.50;99.90;;;;;;4958710;28;20161;-60
2022/04/08 06:30:12;;;;;;;7.95;2.47;;;3.40;99.90;;;;;;4955493;28;20039;-60
2022/04/08 06:32:38;;;;;;;7.88;2.80;;;3.20;99.90;;;;;;4956600;28;20046;-61
2022/04/08 06:35:04;;;;;;;5.32;2.30;;;3.20;99.90;;;;;;4943586;28;20053;-61
2022/04/08 06:37:30;;;;;;;4.93;2.40;;;3.10;99.90;;;;;;4967519;28;20039;-61
2022/04/08 06:40:01;;;;;;;4.13;2.17;;;3.10;99.90;;;;;;4949558;28;20043;-61
2022/04/08 06:42:26;;;;;;;4.72;4.20;;;3.20;99.90;;;;;;4949530;28;20035;-61
2022/04/08 06:44:52;;;;;;;6.18;2.50;;;3.20;99.90;;;;;;4953870;28;20043;-61
2022/04/08 06:47:17;;;;;;;5.07;2.17;;;3.10;99.90;;;;;;4957713;28;20042;-61
2022/04/08 06:49:46;;;;;;;3.60;2.00;;;3.20;99.90;;;;;;4948547;29;20178;-61
2022/04/08 06:52:12;;;;;;;5.65;2.70;;;3.40;99.90;;;;;;4932213;29;20513;-61
2022/04/08 06:54:39;;;;;;;4.88;2.40;;;3.60;99.90;;;;;;4955644;28;20050;-62
2022/04/08 06:57:04;;;;;;;6.75;2.35;;;3.70;99.90;;;;;;4948899;29;20051;-61
2022/04/08 06:59:30;;;;;;;5.20;2.40;;;3.80;99.90;;;;;;4946611;28;20069;-62
2022/04/08 07:01:56;;;;;;;4.63;2.28;;;3.80;99.90;;;;;;4952596;28;20042;-62
2022/04/08 07:04:21;;;;;;;6.93;3.92;;;3.80;99.90;;;;;;4964149;28;20320;-62
2022/04/08 07:06:47;;;;;;;4.90;2.63;;;3.80;99.90;;;;;;4965514;28;20053;-62
2022/04/08 07:09:12;;;;;;;5.90;2.40;;;3.80;99.90;;;;;;4956443;28;20352;-63
2022/04/08 07:11:38;;;;;;;5.75;2.67;;;3.80;99.90;;;;;;4958117;28;20406;-62
2022/04/08 07:14:04;;;;;;;5.50;2.78;;;3.80;99.90;;;;;;4960896;28;20097;-62
2022/04/08 07:16:30;;;;;;;6.38;2.63;;;3.80;99.90;;;;;;4954422;28;20043;-62
2022/04/08 07:18:55;;;;;;;3.45;2.65;;;3.90;99.90;;;;;;4966555;28;20050;-61
2022/04/08 07:21:22;;;;;;;3.30;2.55;;;4.10;99.90;;;;;;4967637;28;20121;-63
2022/04/08 07:23:48;;;;;;;3.97;2.60;;;4.20;99.90;;;;;;4950065;28;20519;-62
2022/04/08 07:26:14;;;;;;;4.18;2.72;;;4.40;99.90;;;;;;4959498;28;20357;-62
2022/04/08 07:28:39;;;;;;;4.22;2.25;;;4.50;99.90;;;;;;4963291;28;20390;-62
2022/04/08 07:31:05;;;;;;;4.18;2.28;;;4.60;99.90;;;;;;4961107;28;20070;-64
2022/04/08 07:33:30;;;;;;;8.57;2.88;;;4.60;99.90;;;;;;4954399;28;20632;-62
2022/04/08 07:35:58;;;;;;;6.68;2.55;;;4.80;99.90;;;;;;4963470;28;20437;-62
2022/04/08 07:38:24;;;;;;;8.68;2.72;;;5.00;99.90;;;;;;4958238;28;20479;-62
2022/04/08 07:40:50;;;;;;;5.75;2.45;;;5.20;99.90;;;;;;4966697;28;20050;-62
2022/04/08 07:43:17;;;;;;;6.70;2.70;;;5.50;99.90;;;;;;4960499;28;20035;-62
2022/04/08 07:45:43;;;;;;;6.63;2.30;;;5.50;99.90;;;;;;4955467;28;20405;-62
2022/04/08 07:48:09;;;;;;;6.05;2.85;;;5.50;99.90;;;;;;4948584;29;20046;-62
2022/04/08 07:50:37;;;;;;;6.00;2.80;;;5.60;99.90;;;;;;4934367;29;20047;-62
2022/04/08 07:53:03;;;;;;;6.55;2.95;;;5.60;99.90;;;;;;4958700;28;20093;-63
2022/04/08 07:55:29;;;;;;;4.85;2.60;;;5.60;99.90;;;;;;4952590;28;20051;-62
2022/04/08 07:57:54;;;;;;;6.47;3.05;;;5.60;99.90;;;;;;4948253;29;20059;-62
2022/04/08 08:00:25;;;;;;;6.15;2.85;;;5.60;99.90;;;;;;4943244;28;20508;-62
2022/04/08 08:02:51;;;;;;;6.93;3.08;;;5.70;99.90;;;;;;4962172;28;20046;-62
2022/04/08 08:05:17;;;;;;;7.22;3.20;;;5.70;99.90;;;;;;4973678;28;20035;-62
2022/04/08 08:07:44;;;;;;;9.35;3.60;;;5.60;99.90;;;;;;4968476;28;20034;-62
2022/04/08 08:10:14;;;;;;;7.32;3.28;;;5.50;99.90;;;;;;4961725;28;20031;-62
2022/04/08 08:12:39;;;;;;;6.15;3.55;;;5.40;99.90;;;;;;4957320;28;20043;-62
2022/04/08 08:15:05;;;;;;;6.53;3.42;;;5.30;99.90;;;;;;4966665;28;20462;-62
2022/04/08 08:17:31;;;;;;;8.77;3.50;;;5.20;99.90;;;;;;4940673;29;20055;-62
2022/04/08 08:19:57;;;;;;;9.00;3.58;;;5.10;99.90;;;;;;4955101;29;20045;-61
2022/04/08 08:22:23;;;;;;;8.30;3.92;;;5.00;99.90;;;;;;4954198;28;20127;-61
2022/04/08 08:24:48;;;;;;;8.68;3.97;;;4.90;99.90;;;;;;4962492;28;20033;-60
2022/04/08 08:27:14;;;;;;;8.93;4.30;;;4.80;99.90;;;;;;4959697;28;20043;-60
2022/04/08 08:29:39;;;;;;;10.38;4.18;;;4.70;99.90;;;;;;4971906;28;20319;-60
2022/04/08 08:32:05;;;;;;;9.80;4.88;;;4.80;99.90;;;;;;4964165;28;20477;-60
2022/04/08 08:34:31;;;;;;;12.73;5.03;;;4.90;99.90;;;;;;4970042;28;20121;-61
2022/04/08 08:36:59;;;;;;;8.77;4.15;;;4.90;99.90;;;;;;4955160;28;20363;-62
2022/04/08 08:39:26;;;;;;;11.20;4.75;;;4.90;99.90;;;;;;4939973;28;20502;-61
2022/04/08 08:41:53;;;;;;;14.40;6.13;;;5.00;99.90;;;;;;4956931;28;20057;-61
2022/04/08 08:44:19;;;;;;;13.77;5.53;;;5.20;99.90;;;;;;4967760;28;20039;-61
2022/04/08 08:46:45;;;;;;;11.30;5.55;;;5.50;99.90;;;;;;4974179;28;20043;-61
2022/04/08 08:49:11;;;;;;;14.07;4.93;;;5.50;99.90;;;;;;4967340;28;20401;-62
2022/04/08 08:51:42;;;;;;;10.68;5.30;;;5.50;99.90;;;;;;4972646;28;20046;-62
2022/04/08 08:54:07;;;;;;;13.68;4.82;;;5.50;99.90;;;;;;4954299;28;20047;-61
2022/04/08 08:56:33;;;;;;;9.15;3.85;;;5.60;99.90;;;;;;4961092;28;20031;-62
2022/04/08 08:58:58;;;;;;;10.68;4.30;;;5.60;99.90;;;;;;4970109;28;20497;-61
2022/04/08 09:01:24;;;;;;;7.00;3.85;;;5.60;99.90;;;;;;4954503;28;20082;-62
2022/04/08 09:03:49;;;;;;;6.88;3.10;;;5.60;99.90;;;;;;4938797;28;20053;-62
2022/04/08 09:06:17;;;;;;;10.27;4.00;;;5.60;99.90;;;;;;4968456;28;20045;-62
2022/04/08 09:08:53;;;;;;;7.40;3.00;;;5.50;99.90;;;;;;4948533;28;20088;-62
2022/04/08 09:11:24;;;;;;;7.38;3.30;;;5.50;99.90;;;;;;4952007;28;20049;-62
2022/04/08 09:13:50;;;;;;;9.65;2.97;;;5.40;99.90;;;;;;4961102;28;20055;-62
2022/04/08 09:16:25;;;;;;;7.78;2.63;;;5.40;99.90;;;;;;4966767;28;20030;-63
2022/04/08 09:18:50;;;;;;;6.38;2.15;;;5.40;99.90;;;;;;4969461;28;20035;-62
2022/04/08 09:21:26;;;;;;;7.38;2.40;;;5.40;99.90;;;;;;4971875;28;20102;-62
2022/04/08 09:23:52;;;;;;;5.03;2.45;;;5.50;99.90;;;;;;4964560;28;20449;-62
2022/04/08 09:26:19;;;;;;;6.20;2.63;;;5.70;99.90;;;;;;4966610;28;20393;-61
2022/04/08 09:28:45;;;;;;;5.90;2.55;;;5.90;99.90;;;;;;4967119;28;20061;-62
2022/04/08 09:31:21;;;;;;;6.55;3.10;;;6.20;99.90;;;;;;4951249;28;20046;-62
2022/04/08 09:33:55;;;;;;;5.70;3.50;;;6.50;99.90;;;;;;4948308;28;20073;-62
2022/04/08 09:36:31;;;;;;;6.70;3.55;;;6.70;99.90;;;;;;4947889;28;20176;-62
2022/04/08 09:38:57;;;;;;;10.95;4.15;;;6.90;99.90;;;;;;4967919;28;20031;-63
2022/04/08 09:41:43;;;;;;;9.13;3.88;;;7.10;99.90;;;;;;4967931;28;20045;-62
2022/04/08 09:44:10;;;;;;;11.07;4.13;;;7.40;99.90;;;;;;4971546;28;20038;-62
2022/04/08 09:46:36;;;;;;;12.25;4.75;;;7.60;99.90;;;;;;4963708;28;20035;-62
2022/04/08 09:49:06;;;;;;;11.73;4.53;;;7.60;99.90;;;;;;4969402;28;20053;-62
2022/04/08 09:51:39;;;;;;;13.32;4.95;;;7.60;99.90;;;;;;4957264;28;20042;-62
2022/04/08 09:54:14;;;;;;;11.27;4.53;;;7.70;99.90;;;;;;4939632;28;20050;-62
2022/04/08 10:01:50;;;;;;;9.75;4.47;;;8.10;99.90;;;;;;4939551;29;20324;-62
2022/04/08 10:04:16;;;;;;;15.10;4.68;;;8.10;99.90;;;;;;4944331;29;20039;-62
2022/04/08 10:12:12;;;;;;;11.07;3.90;;;8.50;99.90;;;;;;5112987;23;20055;-62
2022/04/08 10:18:11;;;;;;;13.38;3.92;;;8.80;99.90;;;;;;5308214;23;20058;-63
2022/04/08 10:20:38;;;;;;;13.43;3.92;;;8.80;99.90;;;;;;4923456;29;20039;-63
2022/04/08 10:23:05;;;;;;;8.23;3.47;;;8.90;99.90;;;;;;4930815;29;20494;-64
2022/04/08 10:25:44;;;;;;;10.80;3.58;;;8.80;99.90;;;;;;4914076;29;20051;-63
2022/04/08 10:28:11;;;;;;;7.05;2.50;;;8.70;99.90;;;;;;4937079;29;20042;-63
2022/04/08 10:30:45;;;;;;;8.27;2.67;;;8.70;99.90;;;;;;4947683;29;20074;-63
2022/04/08 10:35:53;;;;;;;5.35;1.98;;;8.70;99.90;;;;;;5035723;23;20536;-62
2022/04/08 10:38:19;;;;;;;5.25;2.10;;;8.80;99.90;;;;;;4958942;28;20101;-62
2022/04/08 10:44:15;;;;;;;6.35;2.30;;;9.00;99.90;;;;;;4916221;26;20056;-62
2022/04/08 10:49:34;;;;;;;9.23;2.30;;;9.10;99.90;;;;;;5040900;23;20047;-62
2022/04/08 10:51:59;;;;;;;8.85;2.40;;;9.20;99.90;;;;;;4967778;28;20094;-62
2022/04/08 10:54:35;;;;;;;9.32;2.90;;;9.20;99.90;;;;;;4947461;28;20035;-62
2022/04/08 10:59:52;;;;;;;8.98;2.28;;;9.40;99.90;;;;;;4941254;23;20060;-62
2022/04/08 11:02:18;;;;;;;7.28;2.17;;;9.40;99.90;;;;;;4927889;29;20040;-62
2022/04/08 11:07:20;;;;;;;6.63;2.10;;;9.20;99.90;;;;;;4977690;23;20046;-62
2022/04/08 11:09:54;;;;;;;9.27;2.70;;;9.00;99.90;;;;;;4966293;28;20400;-63
2022/04/08 11:14:58;;;;;;;7.25;2.20;;;8.80;99.90;;;;;;5001476;23;20044;-62
2022/04/08 11:17:34;;;;;;;7.85;2.30;;;8.80;99.90;;;;;;5099719;23;20101;-62
2022/04/08 11:19:59;;;;;;;8.63;2.75;;;8.70;99.90;;;;;;4971339;28;20063;-63
2022/04/08 11:22:26;;;;;;;8.63;2.80;;;8.70;99.90;;;;;;4962564;28;20133;-63
2022/04/08 11:30:07;;;;;;;9.25;3.50;;;8.80;99.90;;;;;;5135126;23;20047;-62
2022/04/08 11:32:33;;;;;;;8.80;3.80;;;8.60;99.90;;;;;;4961756;28;20083;-62
2022/04/08 11:37:34;;;;;;;10.55;3.83;;;8.60;99.90;;;;;;5734445;23;20120;-62
2022/04/08 11:43:24;;;;;;;11.88;3.47;;;8.90;99.90;;;;;;5054119;23;1756862;-62
2022/04/08 11:45:51;;;;;;;8.98;3.53;;;9.30;99.90;;;;;;4934871;29;20454;-61
2022/04/08 11:48:23;;;;;;;8.45;3.30;;;9.50;99.90;;;;;;4936876;29;20043;-61
2022/04/08 11:50:49;;;;;;;6.78;3.58;;;9.40;99.90;;;;;;4930834;29;20482;-61
2022/04/08 11:56:58;;;;;;;8.23;3.53;;;9.00;99.90;;;;;;4985376;23;20515;-63
2022/04/08 11:59:25;;;;;;;10.65;3.97;;;8.70;99.90;;;;;;4965515;28;20094;-63
2022/04/08 12:01:58;;;;;;;10.40;3.95;;;8.60;99.90;;;;;;4962316;28;20117;-63
2022/04/08 12:04:24;;;;;;;9.70;3.72;;;8.60;99.90;;;;;;4964148;28;20698;-63
2022/04/08 12:06:49;;;;;;;10.63;4.00;;;8.70;99.90;;;;;;4970941;28;20129;-63
2022/04/08 12:09:17;;;;;;;10.10;4.18;;;8.80;99.90;;;;;;4951694;28;20092;-63
2022/04/08 12:11:45;;;;;;;12.38;3.97;;;8.90;99.90;;;;;;4950957;28;20051;-63
2022/04/08 12:14:10;;;;;;;14.40;3.95;;;8.90;99.90;;;;;;4942840;28;20070;-63
2022/04/08 12:16:38;;;;;;;6.35;3.53;;;8.70;99.90;;;;;;4925706;28;20047;-63
2022/04/08 12:19:04;;;;;;;9.20;2.90;;;7.90;99.90;;;;;;4963095;28;20049;-63
2022/04/08 12:21:31;;;;;;;5.97;3.88;;;7.40;99.90;;;;;;4955336;28;20043;-62
2022/04/08 12:24:04;;;;;;;6.25;3.05;;;7.00;99.90;;;;;;4950664;28;20062;-62
2022/04/08 12:26:38;;;;;;;8.38;3.30;;;6.70;99.90;;;;;;4928442;29;20044;-62
2022/04/08 12:29:14;;;;;;;7.20;3.17;;;6.70;99.90;;;;;;4937987;28;20047;-62
2022/04/08 12:31:53;;;;;;;5.32;2.97;;;6.80;99.90;;;;;;4949447;28;20046;-62
2022/04/08 12:34:19;;;;;;;5.18;2.85;;;7.10;99.90;;;;;;4939171;28;20060;-62
2022/04/08 12:36:46;;;;;;;6.43;2.92;;;7.30;99.90;;;;;;4926888;28;20501;-63
2022/04/08 12:39:12;;;;;;;8.05;3.70;;;7.60;99.90;;;;;;4932613;28;20054;-62
2022/04/08 12:41:42;;;;;;;9.48;3.95;;;7.70;99.90;;;;;;4948350;28;20039;-62
2022/04/08 12:44:09;;;;;;;8.07;4.05;;;8.00;99.90;;;;;;4945442;28;20058;-62
2022/04/08 12:46:35;;;;;;;9.30;3.60;;;8.30;99.90;;;;;;4934166;28;20118;-62
2022/04/08 12:49:02;;;;;;;12.10;3.70;;;8.70;99.90;;;;;;4940686;28;20046;-61
2022/04/08 12:51:28;;;;;;;10.02;3.60;;;8.90;99.90;;;;;;4934544;28;20035;-62
2022/04/08 12:53:54;;;;;;;10.77;3.97;;;9.00;99.90;;;;;;4952580;28;20074;-62
2022/04/08 12:56:20;;;;;;;12.40;3.70;;;9.20;99.90;;;;;;4947755;29;20868;-62
2022/04/08 12:58:46;;;;;;;9.15;3.70;;;9.20;99.90;;;;;;4943767;28;20036;-62
2022/04/08 13:01:11;;;;;;;14.32;4.30;;;9.20;99.90;;;;;;4949377;28;20114;-62
2022/04/08 13:03:38;;;;;;;11.30;4.22;;;9.30;99.90;;;;;;4951290;28;20682;-62
2022/04/08 13:06:04;;;;;;;8.63;3.88;;;9.40;99.90;;;;;;4942461;28;20498;-62
2022/04/08 13:08:30;;;;;;;5.43;3.50;;;9.50;99.90;;;;;;4948695;28;20075;-62
2022/04/08 13:10:56;;;;;;;11.23;3.10;;;9.40;99.90;;;;;;4962731;28;20090;-62
2022/04/08 13:13:21;;;;;;;13.98;3.90;;;9.30;99.90;;;;;;4952506;29;20140;-62
2022/04/08 13:15:47;;;;;;;9.60;3.40;;;9.10;99.90;;;;;;4943779;28;20038;-62
2022/04/08 13:18:13;;;;;;;6.78;3.45;;;9.10;99.90;;;;;;4953391;28;20049;-62
2022/04/08 13:20:38;;;;;;;10.95;2.70;;;9.30;99.90;;;;;;4953994;28;20122;-62
2022/04/08 13:23:04;;;;;;;5.30;2.60;;;9.50;99.90;;;;;;4945797;28;20042;-62
2022/04/08 13:25:31;;;;;;;6.90;2.47;;;9.70;99.90;;;;;;4945464;28;20067;-63
2022/04/08 13:27:57;;;;;;;6.90;2.40;;;9.80;99.90;;;;;;4948592;28;20113;-63
2022/04/08 13:30:23;;;;;;;7.82;2.35;;;9.80;99.90;;;;;;4953642;28;20075;-63
2022/04/08 13:32:48;;;;;;;6.30;2.63;;;9.80;99.90;;;;;;4954300;28;20073;-64
2022/04/08 13:35:14;;;;;;;5.25;2.08;;;9.90;99.90;;;;;;4954602;29;20039;-64
2022/04/08 13:37:40;;;;;;;8.68;2.65;;;9.90;99.90;;;;;;4948846;28;20062;-64
2022/04/08 13:40:07;;;;;;;6.63;2.47;;;9.90;99.90;;;;;;4949127;28;20102;-64
2022/04/08 13:42:32;;;;;;;4.80;1.95;;;9.80;99.90;;;;;;4952151;28;20106;-64